sensor_id;sensor_type;location;lat;lon;timestamp;pressure;altitude;pressure_sealevel;temperature;humidity
28630;BME280;15817;42.130;24.762;2024-01-11T00:01:46;101131.16;;;-0.03;100.00
28630;BME280;15817;42.130;24.762;2024-01-11T00:04:17;101126.47;;;-0.08;100.00
28630;BME280;15817;42.130;24.762;2024-01-11T00:06:59;101120.91;;;-0.14;100.00
28630;BME280;15817;42.130;24.762;2024-01-11T00:09:25;101119.00;;;-0.17;100.00
28630;BME280;15817;42.130;24.762;2024-01-11T00:11:56;101118.81;;;-0.20;100.00
28630;BME280;15817;42.130;24.762;2024-01-11T00:14:28;101113.69;;;-0.18;100.00
28630;BME280;15817;42.130;24.762;2024-01-11T00:17:01;101116.22;;;-0.20;100.00
28630;BME280;15817;42.130;24.762;2024-01-11T00:19:57;101116.31;;;-0.18;100.00
28630;BME280;15817;42.130;24.762;2024-01-11T00:22:28;101116.31;;;-0.18;100.00
28630;BME280;15817;42.130;24.762;2024-01-11T00:24:57;101111.56;;;-0.25;100.00
28630;BME280;15817;42.130;24.762;2024-01-11T00:27:40;101108.19;;;-0.23;100.00
28630;BME280;15817;42.130;24.762;2024-01-11T00:30:09;101105.34;;;-0.27;100.00
28630;BME280;15817;42.130;24.762;2024-01-11T00:32:38;101096.78;;;-0.25;100.00
28630;BME280;15817;42.130;24.762;2024-01-11T00:35:07;101090.75;;;-0.24;100.00
28630;BME280;15817;42.130;24.762;2024-01-11T00:37:35;101084.34;;;-0.29;100.00
28630;BME280;15817;42.130;24.762;2024-01-11T00:40:12;101085.41;;;-0.25;100.00
28630;BME280;15817;42.130;24.762;2024-01-11T00:42:45;101086.31;;;-0.25;100.00
28630;BME280;15817;42.130;24.762;2024-01-11T00:45:31;101079.72;;;-0.18;100.00
28630;BME280;15817;42.130;24.762;2024-01-11T00:48:00;101079.78;;;-0.17;100.00
28630;BME280;15817;42.130;24.762;2024-01-11T00:50:32;101073.25;;;-0.25;100.00
28630;BME280;15817;42.130;24.762;2024-01-11T00:53:07;101062.69;;;-0.26;100.00
28630;BME280;15817;42.130;24.762;2024-01-11T00:55:39;101056.56;;;-0.27;100.00
28630;BME280;15817;42.130;24.762;2024-01-11T00:58:07;101059.00;;;-0.30;100.00
28630;BME280;15817;42.130;24.762;2024-01-11T01:00:51;101052.06;;;-0.29;100.00
28630;BME280;15817;42.130;24.762;2024-01-11T01:03:29;101043.41;;;-0.28;100.00
28630;BME280;15817;42.130;24.762;2024-01-11T01:06:03;101051.34;;;-0.27;100.00
28630;BME280;15817;42.130;24.762;2024-01-11T01:08:37;101055.66;;;-0.27;100.00
28630;BME280;15817;42.130;24.762;2024-01-11T01:11:08;101047.75;;;-0.29;100.00
28630;BME280;15817;42.130;24.762;2024-01-11T01:13:42;101055.84;;;-0.24;100.00
28630;BME280;15817;42.130;24.762;2024-01-11T01:16:08;101049.34;;;-0.31;100.00
28630;BME280;15817;42.130;24.762;2024-01-11T01:18:34;101051.25;;;-0.28;100.00
28630;BME280;15817;42.130;24.762;2024-01-11T01:21:02;101035.69;;;-0.42;100.00
28630;BME280;15817;42.130;24.762;2024-01-11T01:23:30;101035.88;;;-0.39;100.00
28630;BME280;15817;42.130;24.762;2024-01-11T01:26:01;101032.38;;;-0.54;100.00
28630;BME280;15817;42.130;24.762;2024-01-11T01:28:35;101040.59;;;-0.62;100.00
28630;BME280;15817;42.130;24.762;2024-01-11T01:31:02;101029.44;;;-0.75;100.00
28630;BME280;15817;42.130;24.762;2024-01-11T01:33:28;101028.81;;;-0.70;100.00
28630;BME280;15817;42.130;24.762;2024-01-11T01:35:58;101022.41;;;-0.61;100.00
28630;BME280;15817;42.130;24.762;2024-01-11T01:45:09;101016.28;;;-0.61;100.00
28630;BME280;15817;42.130;24.762;2024-01-11T01:47:41;101015.38;;;-0.62;100.00
28630;BME280;15817;42.130;24.762;2024-01-11T01:50:25;101005.56;;;-0.66;100.00
28630;BME280;15817;42.130;24.762;2024-01-11T01:52:59;101017.28;;;-0.59;100.00
28630;BME280;15817;42.130;24.762;2024-01-11T01:55:28;101004.84;;;-0.63;100.00
28630;BME280;15817;42.130;24.762;2024-01-11T01:58:07;101005.13;;;-0.59;100.00
28630;BME280;15817;42.130;24.762;2024-01-11T02:00:33;101001.25;;;-0.65;100.00
28630;BME280;15817;42.130;24.762;2024-01-11T02:03:01;100995.91;;;-0.67;100.00
28630;BME280;15817;42.130;24.762;2024-01-11T02:05:33;100990.56;;;-0.70;100.00
28630;BME280;15817;42.130;24.762;2024-01-11T02:08:04;100990.69;;;-0.67;100.00
28630;BME280;15817;42.130;24.762;2024-01-11T02:10:37;100991.78;;;-0.63;100.00
28630;BME280;15817;42.130;24.762;2024-01-11T02:13:25;100999.72;;;-0.62;100.00
28630;BME280;15817;42.130;24.762;2024-01-11T02:16:03;100982.16;;;-0.79;100.00
28630;BME280;15817;42.130;24.762;2024-01-11T02:18:29;100992.38;;;-0.84;100.00
28630;BME280;15817;42.130;24.762;2024-01-11T02:21:16;100979.22;;;-0.85;100.00
28630;BME280;15817;42.130;24.762;2024-01-11T02:24:06;100986.75;;;-0.75;100.00
28630;BME280;15817;42.130;24.762;2024-01-11T02:27:12;100968.19;;;-0.80;100.00
28630;BME280;15817;42.130;24.762;2024-01-11T02:29:54;100963.88;;;-0.79;100.00
28630;BME280;15817;42.130;24.762;2024-01-11T02:32:24;100971.72;;;-0.79;100.00
28630;BME280;15817;42.130;24.762;2024-01-11T02:34:56;100971.63;;;-0.81;100.00
28630;BME280;15817;42.130;24.762;2024-01-11T02:37:25;100981.44;;;-0.77;100.00
28630;BME280;15817;42.130;24.762;2024-01-11T02:40:07;100963.88;;;-0.79;100.00
28630;BME280;15817;42.130;24.762;2024-01-11T02:42:38;100968.06;;;-0.83;100.00
28630;BME280;15817;42.130;24.762;2024-01-11T02:45:08;100977.84;;;-0.79;100.00
28630;BME280;15817;42.130;24.762;2024-01-11T02:47:42;100976.13;;;-0.78;100.00
28630;BME280;15817;42.130;24.762;2024-01-11T02:50:13;100971.56;;;-0.82;100.00
28630;BME280;15817;42.130;24.762;2024-01-11T02:53:01;100971.47;;;-0.84;100.00
28630;BME280;15817;42.130;24.762;2024-01-11T02:55:32;100979.41;;;-0.82;100.00
28630;BME280;15817;42.130;24.762;2024-01-11T02:58:05;100973.38;;;-0.81;100.00
28630;BME280;15817;42.130;24.762;2024-01-11T03:00:51;100969.00;;;-0.81;100.00
28630;BME280;15817;42.130;24.762;2024-01-11T03:03:21;100969.09;;;-0.79;100.00
28630;BME280;15817;42.130;24.762;2024-01-11T03:05:52;100975.59;;;-0.73;100.00
28630;BME280;15817;42.130;24.762;2024-01-11T03:08:21;100965.59;;;-0.80;100.00
28630;BME280;15817;42.130;24.762;2024-01-11T03:11:00;100968.97;;;-0.82;100.00
28630;BME280;15817;42.130;24.762;2024-01-11T03:13:26;100965.16;;;-0.87;100.00
28630;BME280;15817;42.130;24.762;2024-01-11T03:15:52;100964.44;;;-0.85;100.00
28630;BME280;15817;42.130;24.762;2024-01-11T03:18:25;100955.91;;;-0.82;100.00
28630;BME280;15817;42.130;24.762;2024-01-11T03:21:03;100959.41;;;-0.82;100.00
28630;BME280;15817;42.130;24.762;2024-01-11T03:23:40;100963.47;;;-0.87;100.00
28630;BME280;15817;42.130;24.762;2024-01-11T03:26:17;100956.25;;;-0.91;100.00
28630;BME280;15817;42.130;24.762;2024-01-11T03:28:46;100959.66;;;-0.92;100.00
28630;BME280;15817;42.130;24.762;2024-01-11T03:31:15;100963.28;;;-0.90;100.00
28630;BME280;15817;42.130;24.762;2024-01-11T03:33:43;100951.59;;;-0.96;100.00
28630;BME280;15817;42.130;24.762;2024-01-11T03:36:17;100957.06;;;-0.92;100.00
28630;BME280;15817;42.130;24.762;2024-01-11T03:38:54;100960.03;;;-0.86;100.00
28630;BME280;15817;42.130;24.762;2024-01-11T03:41:22;100956.44;;;-0.88;100.00
28630;BME280;15817;42.130;24.762;2024-01-11T03:43:58;100944.75;;;-0.94;100.00
28630;BME280;15817;42.130;24.762;2024-01-11T03:46:29;100943.94;;;-0.93;100.00
28630;BME280;15817;42.130;24.762;2024-01-11T03:49:04;100954.72;;;-0.87;100.00
28630;BME280;15817;42.130;24.762;2024-01-11T03:51:34;100945.09;;;-0.88;100.00
28630;BME280;15817;42.130;24.762;2024-01-11T03:54:15;100946.97;;;-0.86;100.00
28630;BME280;15817;42.130;24.762;2024-01-11T03:56:43;100943.28;;;-0.89;100.00
28630;BME280;15817;42.130;24.762;2024-01-11T03:59:10;100936.34;;;-0.89;100.00
28630;BME280;15817;42.130;24.762;2024-01-11T04:01:50;100938.16;;;-0.88;100.00
28630;BME280;15817;42.130;24.762;2024-01-11T04:04:19;100933.41;;;-0.95;100.00
28630;BME280;15817;42.130;24.762;2024-01-11T04:06:48;100931.53;;;-0.97;100.00
28630;BME280;15817;42.130;24.762;2024-01-11T04:10:05;100930.44;;;-1.01;100.00
28630;BME280;15817;42.130;24.762;2024-01-11T04:12:57;100926.03;;;-1.02;100.00
28630;BME280;15817;42.130;24.762;2024-01-11T04:15:31;100924.31;;;-1.01;100.00
28630;BME280;15817;42.130;24.762;2024-01-11T04:18:01;100924.06;;;-1.06;100.00
28630;BME280;15817;42.130;24.762;2024-01-11T04:20:30;100918.38;;;-1.14;100.00
28630;BME280;15817;42.130;24.762;2024-01-11T04:23:05;100917.88;;;-1.23;100.00
28630;BME280;15817;42.130;24.762;2024-01-11T04:25:36;100917.88;;;-1.23;100.00
28630;BME280;15817;42.130;24.762;2024-01-11T04:28:03;100920.56;;;-1.36;100.00
28630;BME280;15817;42.130;24.762;2024-01-11T04:30:34;100917.63;;;-1.42;100.00
28630;BME280;15817;42.130;24.762;2024-01-11T04:33:02;100920.13;;;-1.43;100.00
28630;BME280;15817;42.130;24.762;2024-01-11T04:35:37;100932.00;;;-1.49;100.00
28630;BME280;15817;42.130;24.762;2024-01-11T04:38:09;100928.44;;;-1.51;100.00
28630;BME280;15817;42.130;24.762;2024-01-11T04:40:37;100924.53;;;-1.57;100.00
28630;BME280;15817;42.130;24.762;2024-01-11T04:43:06;100926.97;;;-1.60;100.00
28630;BME280;15817;42.130;24.762;2024-01-11T04:45:44;100920.59;;;-1.65;100.00
28630;BME280;15817;42.130;24.762;2024-01-11T04:48:13;100924.63;;;-1.56;100.00
28630;BME280;15817;42.130;24.762;2024-01-11T04:50:55;100915.63;;;-1.61;100.00
28630;BME280;15817;42.130;24.762;2024-01-11T04:53:36;100919.22;;;-1.59;100.00
28630;BME280;15817;42.130;24.762;2024-01-11T04:56:14;100923.81;;;-1.55;100.00
28630;BME280;15817;42.130;24.762;2024-01-11T04:58:44;100913.91;;;-1.60;100.00
28630;BME280;15817;42.130;24.762;2024-01-11T05:01:33;100921.41;;;-1.52;100.00
28630;BME280;15817;42.130;24.762;2024-01-11T05:04:03;100918.97;;;-1.49;100.00
28630;BME280;15817;42.130;24.762;2024-01-11T05:06:41;100900.44;;;-1.53;100.00
28630;BME280;15817;42.130;24.762;2024-01-11T05:09:20;100902.41;;;-1.49;100.00
28630;BME280;15817;42.130;24.762;2024-01-11T05:11:50;100904.50;;;-1.43;100.00
28630;BME280;15817;42.130;24.762;2024-01-11T05:14:23;100903.03;;;-1.38;100.00
28630;BME280;15817;42.130;24.762;2024-01-11T05:16:54;100897.91;;;-1.37;100.00
28630;BME280;15817;42.130;24.762;2024-01-11T05:19:28;100899.78;;;-1.34;100.00
28630;BME280;15817;42.130;24.762;2024-01-11T05:21:55;100896.56;;;-1.30;100.00
28630;BME280;15817;42.130;24.762;2024-01-11T05:24:25;100893.88;;;-1.32;100.00
28630;BME280;15817;42.130;24.762;2024-01-11T05:27:06;100890.34;;;-1.32;100.00
28630;BME280;15817;42.130;24.762;2024-01-11T05:29:37;100899.16;;;-1.30;100.00
28630;BME280;15817;42.130;24.762;2024-01-11T05:32:28;100893.88;;;-1.32;100.00
28630;BME280;15817;42.130;24.762;2024-01-11T05:34:54;100898.28;;;-1.31;100.00
28630;BME280;15817;42.130;24.762;2024-01-11T05:37:25;100897.56;;;-1.28;100.00
28630;BME280;15817;42.130;24.762;2024-01-11T05:39:57;100885.31;;;-1.29;100.00
28630;BME280;15817;42.130;24.762;2024-01-11T05:42:28;100885.31;;;-1.29;100.00
28630;BME280;15817;42.130;24.762;2024-01-11T05:45:10;100885.84;;;-1.35;100.00
28630;BME280;15817;42.130;24.762;2024-01-11T05:47:36;100886.31;;;-1.42;100.00
28630;BME280;15817;42.130;24.762;2024-01-11T05:50:07;100882.53;;;-1.47;100.00
28630;BME280;15817;42.130;24.762;2024-01-11T05:52:40;100883.25;;;-1.50;100.00
28630;BME280;15817;42.130;24.762;2024-01-11T05:55:26;100888.03;;;-1.42;100.00
28630;BME280;15817;42.130;24.762;2024-01-11T05:58:01;100878.59;;;-1.40;100.00
28630;BME280;15817;42.130;24.762;2024-01-11T06:00:35;100874.00;;;-1.44;100.00
28630;BME280;15817;42.130;24.762;2024-01-11T06:03:18;100881.19;;;-1.40;100.00
28630;BME280;15817;42.130;24.762;2024-01-11T06:06:07;100884.63;;;-1.41;100.00
28630;BME280;15817;42.130;24.762;2024-01-11T06:08:39;100880.91;;;-1.45;100.00
28630;BME280;15817;42.130;24.762;2024-01-11T06:11:16;100875.16;;;-1.39;100.00
28630;BME280;15817;42.130;24.762;2024-01-11T06:13:44;100880.81;;;-1.32;100.00
28630;BME280;15817;42.130;24.762;2024-01-11T06:16:23;100869.47;;;-1.32;100.00
28630;BME280;15817;42.130;24.762;2024-01-11T06:19:01;100879.28;;;-1.28;100.00
28630;BME280;15817;42.130;24.762;2024-01-11T06:21:40;100869.81;;;-1.26;100.00
28630;BME280;15817;42.130;24.762;2024-01-11T06:24:09;100871.63;;;-1.25;100.00
28630;BME280;15817;42.130;24.762;2024-01-11T06:26:38;100868.19;;;-1.24;100.00
28630;BME280;15817;42.130;24.762;2024-01-11T06:29:12;100869.75;;;-1.28;100.00
28630;BME280;15817;42.130;24.762;2024-01-11T06:34:32;100871.78;;;-1.22;100.00
28630;BME280;15817;42.130;24.762;2024-01-11T06:37:10;100865.69;;;-1.23;100.00
28630;BME280;15817;42.130;24.762;2024-01-11T06:40:19;100873.78;;;-1.18;100.00
28630;BME280;15817;42.130;24.762;2024-01-11T06:42:48;100876.13;;;-1.23;100.00
28630;BME280;15817;42.130;24.762;2024-01-11T06:45:29;100855.97;;;-1.25;100.00
28630;BME280;15817;42.130;24.762;2024-01-11T06:48:04;100864.97;;;-1.20;100.00
28630;BME280;15817;42.130;24.762;2024-01-11T06:50:43;100863.97;;;-1.22;100.00
28630;BME280;15817;42.130;24.762;2024-01-11T06:53:09;100855.31;;;-1.21;100.00
28630;BME280;15817;42.130;24.762;2024-01-11T06:55:44;100863.34;;;-1.18;100.00
28630;BME280;15817;42.130;24.762;2024-01-11T06:58:27;100860.53;;;-1.21;100.00
28630;BME280;15817;42.130;24.762;2024-01-11T07:01:02;100863.16;;;-1.21;100.00
28630;BME280;15817;42.130;24.762;2024-01-11T07:03:56;100865.13;;;-1.17;100.00
28630;BME280;15817;42.130;24.762;2024-01-11T07:06:46;100860.88;;;-1.15;100.00
28630;BME280;15817;42.130;24.762;2024-01-11T07:09:14;100861.16;;;-1.11;100.00
28630;BME280;15817;42.130;24.762;2024-01-11T07:11:47;100862.78;;;-1.13;100.00
28630;BME280;15817;42.130;24.762;2024-01-11T07:14:13;100875.38;;;-1.05;100.00
28630;BME280;15817;42.130;24.762;2024-01-11T07:16:48;100869.34;;;-1.04;100.00
28630;BME280;15817;42.130;24.762;2024-01-11T07:19:14;100862.22;;;-1.07;100.00
28630;BME280;15817;42.130;24.762;2024-01-11T07:21:43;100860.03;;;-0.99;100.00
28630;BME280;15817;42.130;24.762;2024-01-11T07:24:10;100869.66;;;-0.98;100.00
28630;BME280;15817;42.130;24.762;2024-01-11T07:26:38;100846.66;;;-1.05;100.00
28630;BME280;15817;42.130;24.762;2024-01-11T07:29:13;100861.75;;;-1.00;100.00
28630;BME280;15817;42.130;24.762;2024-01-11T07:31:39;100857.34;;;-1.01;100.00
28630;BME280;15817;42.130;24.762;2024-01-11T07:34:09;100847.78;;;-1.00;100.00
28630;BME280;15817;42.130;24.762;2024-01-11T07:36:40;100849.09;;;-0.92;100.00
28630;BME280;15817;42.130;24.762;2024-01-11T07:39:09;100852.63;;;-0.92;100.00
28630;BME280;15817;42.130;24.762;2024-01-11T07:41:35;100843.97;;;-0.91;100.00
28630;BME280;15817;42.130;24.762;2024-01-11T07:44:01;100843.53;;;-0.84;100.00
28630;BME280;15817;42.130;24.762;2024-01-11T07:46:27;100823.00;;;-0.92;100.00
28630;BME280;15817;42.130;24.762;2024-01-11T07:48:53;100824.88;;;-0.90;100.00
28630;BME280;15817;42.130;24.762;2024-01-11T07:51:26;100823.34;;;-0.86;100.00
28630;BME280;15817;42.130;24.762;2024-01-11T07:53:54;100816.59;;;-0.83;100.00
28630;BME280;15817;42.130;24.762;2024-01-11T07:56:24;100822.78;;;-0.81;100.00
28630;BME280;15817;42.130;24.762;2024-01-11T07:58:52;100820.50;;;-0.75;100.00
28630;BME280;15817;42.130;24.762;2024-01-11T08:01:21;100821.41;;;-0.74;100.00
28630;BME280;15817;42.130;24.762;2024-01-11T08:03:56;100822.41;;;-0.72;100.00
28630;BME280;15817;42.130;24.762;2024-01-11T08:06:35;100822.41;;;-0.72;100.00
28630;BME280;15817;42.130;24.762;2024-01-11T08:09:01;100806.88;;;-0.69;100.00
28630;BME280;15817;42.130;24.762;2024-01-11T08:11:38;100807.75;;;-0.68;100.00
28630;BME280;15817;42.130;24.762;2024-01-11T08:14:08;100814.31;;;-0.60;100.00
28630;BME280;15817;42.130;24.762;2024-01-11T08:16:34;100809.00;;;-0.62;100.00
28630;BME280;15817;42.130;24.762;2024-01-11T08:19:03;100800.53;;;-0.58;100.00
28630;BME280;15817;42.130;24.762;2024-01-11T08:21:44;100794.53;;;-0.55;100.00
28630;BME280;15817;42.130;24.762;2024-01-11T08:24:17;100796.34;;;-0.54;100.00
28630;BME280;15817;42.130;24.762;2024-01-11T08:26:52;100800.03;;;-0.51;100.00
28630;BME280;15817;42.130;24.762;2024-01-11T08:29:20;100793.25;;;-0.47;100.00
28630;BME280;15817;42.130;24.762;2024-01-11T08:31:50;100790.47;;;-0.50;100.00
28630;BME280;15817;42.130;24.762;2024-01-11T08:34:16;100789.75;;;-0.48;100.00
28630;BME280;15817;42.130;24.762;2024-01-11T08:36:44;100788.09;;;-0.46;100.00
28630;BME280;15817;42.130;24.762;2024-01-11T08:39:13;100787.34;;;-0.43;100.00
28630;BME280;15817;42.130;24.762;2024-01-11T08:41:40;100793.91;;;-0.35;100.00
28630;BME280;15817;42.130;24.762;2024-01-11T08:44:10;100779.84;;;-0.37;100.00
28630;BME280;15817;42.130;24.762;2024-01-11T08:46:36;100777.47;;;-0.32;100.00
28630;BME280;15817;42.130;24.762;2024-01-11T08:49:07;100769.78;;;-0.29;100.00
28630;BME280;15817;42.130;24.762;2024-01-11T08:52:05;100778.91;;;-0.21;100.00
28630;BME280;15817;42.130;24.762;2024-01-11T08:54:47;100772.88;;;-0.20;100.00
28630;BME280;15817;42.130;24.762;2024-01-11T08:57:29;100757.25;;;-0.19;100.00
28630;BME280;15817;42.130;24.762;2024-01-11T08:59:57;100760.25;;;-0.11;100.00
28630;BME280;15817;42.130;24.762;2024-01-11T09:02:26;100747.13;;;-0.13;100.00
28630;BME280;15817;42.130;24.762;2024-01-11T09:05:13;100747.34;;;-0.08;100.00
28630;BME280;15817;42.130;24.762;2024-01-11T09:07:55;100733.53;;;-0.06;100.00
28630;BME280;15817;42.130;24.762;2024-01-11T09:10:26;100735.50;;;-0.02;100.00
28630;BME280;15817;42.130;24.762;2024-01-11T09:12:55;100737.75;;;0.09;100.00
28630;BME280;15817;42.130;24.762;2024-01-11T09:18:13;100718.16;;;0.18;100.00
28630;BME280;15817;42.130;24.762;2024-01-11T09:20:39;100713.16;;;0.23;100.00
28630;BME280;15817;42.130;24.762;2024-01-11T09:23:05;100714.94;;;0.24;100.00
28630;BME280;15817;42.130;24.762;2024-01-11T09:25:31;100707.25;;;0.27;100.00
28630;BME280;15817;42.130;24.762;2024-01-11T09:27:57;100698.72;;;0.31;100.00
28630;BME280;15817;42.130;24.762;2024-01-11T09:30:23;100695.81;;;0.43;100.00
28630;BME280;15817;42.130;24.762;2024-01-11T09:32:49;100683.78;;;0.46;100.00
28630;BME280;15817;42.130;24.762;2024-01-11T09:35:15;100683.22;;;0.53;100.00
28630;BME280;15817;42.130;24.762;2024-01-11T09:37:41;100689.78;;;0.63;100.00
28630;BME280;15817;42.130;24.762;2024-01-11T09:40:08;100686.50;;;0.67;100.00
28630;BME280;15817;42.130;24.762;2024-01-11T09:42:39;100685.34;;;0.80;100.00
28630;BME280;15817;42.130;24.762;2024-01-11T09:45:16;100666.03;;;0.78;100.00
28630;BME280;15817;42.130;24.762;2024-01-11T09:47:44;100661.81;;;0.81;100.00
28630;BME280;15817;42.130;24.762;2024-01-11T09:50:26;100656.13;;;0.90;100.00
28630;BME280;15817;42.130;24.762;2024-01-11T09:53:01;100648.44;;;0.94;100.00
28630;BME280;15817;42.130;24.762;2024-01-11T09:55:29;100648.69;;;0.99;100.00
28630;BME280;15817;42.130;24.762;2024-01-11T09:57:59;100639.16;;;1.01;100.00
28630;BME280;15817;42.130;24.762;2024-01-11T10:00:28;100628.13;;;1.08;100.00
28630;BME280;15817;42.130;24.762;2024-01-11T10:02:59;100638.16;;;1.18;100.00
28630;BME280;15817;42.130;24.762;2024-01-11T10:05:33;100630.38;;;1.20;100.00
28630;BME280;15817;42.130;24.762;2024-01-11T10:08:03;100628.97;;;1.28;100.00
28630;BME280;15817;42.130;24.762;2024-01-11T10:10:29;100619.53;;;1.31;100.00
28630;BME280;15817;42.130;24.762;2024-01-11T10:12:55;100623.13;;;1.33;100.00
28630;BME280;15817;42.130;24.762;2024-01-11T10:15:24;100599.59;;;1.35;100.00
28630;BME280;15817;42.130;24.762;2024-01-11T10:17:55;100599.84;;;1.41;100.00
28630;BME280;15817;42.130;24.762;2024-01-11T10:20:21;100610.78;;;1.52;100.00
28630;BME280;15817;42.130;24.762;2024-01-11T10:22:49;100584.47;;;1.49;100.00
28630;BME280;15817;42.130;24.762;2024-01-11T10:25:16;100583.69;;;1.51;100.00
28630;BME280;15817;42.130;24.762;2024-01-11T10:27:44;100575.81;;;1.51;100.00
28630;BME280;15817;42.130;24.762;2024-01-11T10:30:14;100582.16;;;1.56;100.00
28630;BME280;15817;42.130;24.762;2024-01-11T10:32:50;100578.50;;;1.53;100.00
28630;BME280;15817;42.130;24.762;2024-01-11T10:35:16;100578.78;;;1.59;100.00
28630;BME280;15817;42.130;24.762;2024-01-11T10:37:44;100562.91;;;1.56;100.00
28630;BME280;15817;42.130;24.762;2024-01-11T10:40:10;100553.38;;;1.58;100.00
28630;BME280;15817;42.130;24.762;2024-01-11T10:42:45;100550.91;;;1.61;100.00
28630;BME280;15817;42.130;24.762;2024-01-11T10:45:47;100549.22;;;1.63;100.00
28630;BME280;15817;42.130;24.762;2024-01-11T10:48:15;100542.50;;;1.69;100.00
28630;BME280;15817;42.130;24.762;2024-01-11T10:51:07;100543.41;;;1.70;100.00
28630;BME280;15817;42.130;24.762;2024-01-11T10:53:50;100532.19;;;1.96;100.00
28630;BME280;15817;42.130;24.762;2024-01-11T10:56:40;100514.53;;;2.14;100.00
28630;BME280;15817;42.130;24.762;2024-01-11T10:59:22;100519.78;;;2.14;100.00
28630;BME280;15817;42.130;24.762;2024-01-11T11:01:56;100509.91;;;2.07;100.00
28630;BME280;15817;42.130;24.762;2024-01-11T11:04:29;100512.22;;;2.00;100.00
28630;BME280;15817;42.130;24.762;2024-01-11T11:06:56;100505.94;;;1.96;100.00
28630;BME280;15817;42.130;24.762;2024-01-11T11:09:25;100499.78;;;1.94;100.00
28630;BME280;15817;42.130;24.762;2024-01-11T11:11:58;100495.38;;;1.93;100.00
28630;BME280;15817;42.130;24.762;2024-01-11T11:14:28;100501.66;;;1.98;100.00
28630;BME280;15817;42.130;24.762;2024-01-11T11:16:58;100489.28;;;1.94;100.00
28630;BME280;15817;42.130;24.762;2024-01-11T11:19:24;100488.34;;;1.92;100.00
28630;BME280;15817;42.130;24.762;2024-01-11T11:21:53;100492.84;;;1.96;100.00
28630;BME280;15817;42.130;24.762;2024-01-11T11:24:25;100486.81;;;1.99;100.00
28630;BME280;15817;42.130;24.762;2024-01-11T11:26:51;100478.06;;;1.98;100.00
28630;BME280;15817;42.130;24.762;2024-01-11T11:29:25;100467.69;;;2.01;100.00
28630;BME280;15817;42.130;24.762;2024-01-11T11:31:51;100475.00;;;2.10;100.00
28630;BME280;15817;42.130;24.762;2024-01-11T11:34:20;100458.16;;;2.03;100.00
28630;BME280;15817;42.130;24.762;2024-01-11T11:36:46;100459.19;;;2.08;100.00
28630;BME280;15817;42.130;24.762;2024-01-11T11:39:18;100445.03;;;2.03;100.00
28630;BME280;15817;42.130;24.762;2024-01-11T11:41:45;100446.09;;;2.08;100.00
28630;BME280;15817;42.130;24.762;2024-01-11T11:44:14;100443.59;;;2.11;100.00
28630;BME280;15817;42.130;24.762;2024-01-11T11:46:41;100429.44;;;2.08;100.00
28630;BME280;15817;42.130;24.762;2024-01-11T11:49:07;100428.72;;;2.12;100.00
28630;BME280;15817;42.130;24.762;2024-01-11T11:51:39;100422.72;;;2.14;100.00
28630;BME280;15817;42.130;24.762;2024-01-11T11:54:05;100411.44;;;2.17;100.00
28630;BME280;15817;42.130;24.762;2024-01-11T11:56:34;100403.50;;;2.15;100.00
28630;BME280;15817;42.130;24.762;2024-01-11T11:59:02;100400.00;;;2.15;100.00
28630;BME280;15817;42.130;24.762;2024-01-11T12:01:32;100401.94;;;2.21;100.00
28630;BME280;15817;42.130;24.762;2024-01-11T12:03:59;100388.03;;;2.23;100.00
28630;BME280;15817;42.130;24.762;2024-01-11T12:06:25;100385.00;;;2.36;100.00
28630;BME280;15817;42.130;24.762;2024-01-11T12:08:54;100366.75;;;2.39;100.00
28630;BME280;15817;42.130;24.762;2024-01-11T12:11:23;100379.22;;;2.46;100.00
28630;BME280;15817;42.130;24.762;2024-01-11T12:13:53;100364.19;;;2.41;100.00
28630;BME280;15817;42.130;24.762;2024-01-11T12:16:21;100346.69;;;2.41;100.00
28630;BME280;15817;42.130;24.762;2024-01-11T12:19:11;100346.78;;;2.44;99.93
28630;BME280;15817;42.130;24.762;2024-01-11T12:21:39;100353.34;;;2.57;100.00
28630;BME280;15817;42.130;24.762;2024-01-11T12:24:07;100340.28;;;2.59;98.83
28630;BME280;15817;42.130;24.762;2024-01-11T12:26:45;100341.28;;;2.62;99.25
28630;BME280;15817;42.130;24.762;2024-01-11T12:29:20;100344.13;;;2.70;99.36
28630;BME280;15817;42.130;24.762;2024-01-11T12:31:57;100334.28;;;2.63;100.00
28630;BME280;15817;42.130;24.762;2024-01-11T12:34:30;100334.13;;;2.58;100.00
28630;BME280;15817;42.130;24.762;2024-01-11T12:37:05;100328.81;;;2.57;100.00
28630;BME280;15817;42.130;24.762;2024-01-11T12:39:43;100318.31;;;2.57;100.00
28630;BME280;15817;42.130;24.762;2024-01-11T12:42:09;100329.16;;;2.67;100.00
28630;BME280;15817;42.130;24.762;2024-01-11T12:44:39;100317.03;;;2.71;100.00
28630;BME280;15817;42.130;24.762;2024-01-11T12:47:07;100317.03;;;2.71;100.00
28630;BME280;15817;42.130;24.762;2024-01-11T12:49:33;100316.94;;;2.68;100.00
28630;BME280;15817;42.130;24.762;2024-01-11T12:51:59;100312.22;;;2.58;100.00
28630;BME280;15817;42.130;24.762;2024-01-11T12:54:25;100318.47;;;2.61;100.00
28630;BME280;15817;42.130;24.762;2024-01-11T12:56:51;100302.72;;;2.61;100.00
28630;BME280;15817;42.130;24.762;2024-01-11T12:59:16;100307.03;;;2.59;100.00
28630;BME280;15817;42.130;24.762;2024-01-11T13:01:42;100315.00;;;2.62;100.00
28630;BME280;15817;42.130;24.762;2024-01-11T13:04:11;100297.47;;;2.61;100.00
28630;BME280;15817;42.130;24.762;2024-01-11T13:06:37;100305.34;;;2.61;100.00
28630;BME280;15817;42.130;24.762;2024-01-11T13:09:03;100299.94;;;2.57;100.00
28630;BME280;15817;42.130;24.762;2024-01-11T13:11:40;100298.38;;;2.62;100.00
28630;BME280;15817;42.130;24.762;2024-01-11T13:14:08;100288.53;;;2.56;100.00